createdAt,value
2018-07-22T00:02:46.881Z,18.50
2018-07-22T00:07:21.084Z,18.40
2018-07-22T00:11:56.279Z,18.40
2018-07-22T00:16:31.620Z,18.40
2018-07-22T00:21:06.003Z,18.30
2018-07-22T00:25:40.995Z,18.30
2018-07-22T00:30:15.384Z,18.30
2018-07-22T00:34:51.063Z,18.30
2018-07-22T00:39:25.363Z,18.30
2018-07-22T00:48:34.779Z,18.10
2018-07-22T00:53:10.054Z,18.10
2018-07-22T00:57:45.004Z,18.10
2018-07-22T01:02:19.908Z,18.00
2018-07-22T01:06:54.656Z,18.00
2018-07-22T01:11:28.960Z,18.00
2018-07-22T01:16:03.836Z,18.10
2018-07-22T01:20:39.387Z,18.10
2018-07-22T01:25:14.372Z,18.10
2018-07-22T01:29:49.087Z,18.10
2018-07-22T01:34:24.376Z,18.10
2018-07-22T01:38:58.653Z,18.00
2018-07-22T01:43:33.017Z,18.10
2018-07-22T01:48:07.384Z,18.10
2018-07-22T01:52:41.664Z,18.10
2018-07-22T01:57:17.111Z,18.00
2018-07-22T02:01:52.911Z,18.00
2018-07-22T02:06:27.543Z,18.10
2018-07-22T02:11:03.070Z,18.10
2018-07-22T02:15:38.395Z,18.20
2018-07-22T02:20:13.440Z,18.20
2018-07-22T02:24:48.400Z,18.20
2018-07-22T02:29:25.118Z,18.30
2018-07-22T02:33:59.440Z,18.30
2018-07-22T02:38:33.788Z,18.40
2018-07-22T02:43:09.424Z,18.40
2018-07-22T02:47:43.608Z,18.50
2018-07-22T02:52:17.900Z,18.50
2018-07-22T02:56:53.286Z,18.50
2018-07-22T03:01:28.012Z,18.40
2018-07-22T03:06:02.260Z,18.40
2018-07-22T03:10:36.420Z,18.50
2018-07-22T03:15:11.092Z,18.50
2018-07-22T03:19:46.009Z,18.40
2018-07-22T03:24:20.279Z,18.40
2018-07-22T03:28:55.451Z,18.30
2018-07-22T03:33:31.328Z,18.30
2018-07-22T03:42:40.843Z,18.20
2018-07-22T03:47:15.553Z,18.20
2018-07-22T03:51:49.980Z,18.20
2018-07-22T03:56:25.262Z,18.10
2018-07-22T04:00:59.960Z,18.10
2018-07-22T04:05:34.521Z,18.00
2018-07-22T04:10:08.672Z,18.00
2018-07-22T04:14:43.631Z,18.00
2018-07-22T04:19:17.983Z,18.00
2018-07-22T04:23:53.603Z,18.00
2018-07-22T04:28:28.008Z,18.00
2018-07-22T04:37:36.568Z,18.10
2018-07-22T04:42:10.896Z,18.20
2018-07-22T04:46:45.379Z,18.20
2018-07-22T04:51:20.160Z,18.20
2018-07-22T04:55:54.388Z,18.30
2018-07-22T05:00:28.829Z,18.40
2018-07-22T05:05:04.028Z,18.50
2018-07-22T05:14:12.836Z,18.70
2018-07-22T05:18:47.945Z,18.90
2018-07-22T05:23:23.043Z,19.00
2018-07-22T05:27:57.828Z,19.20
2018-07-22T05:32:32.128Z,19.20
2018-07-22T05:37:07.765Z,19.40
2018-07-22T05:41:42.506Z,19.40
2018-07-22T05:46:17.204Z,19.50
2018-07-22T05:50:52.128Z,19.60
2018-07-22T05:55:27.080Z,19.70
2018-07-22T06:00:02.462Z,19.90
2018-07-22T06:09:11.423Z,20.40
2018-07-22T06:13:46.396Z,20.60
2018-07-22T06:18:21.291Z,20.70
2018-07-22T06:22:55.497Z,20.80
2018-07-22T06:27:29.924Z,20.80
2018-07-22T06:32:04.307Z,20.80
2018-07-22T06:36:38.851Z,20.70
2018-07-22T06:41:14.529Z,20.60
2018-07-22T06:45:48.748Z,20.60
2018-07-22T06:50:23.543Z,20.60
2018-07-22T06:54:58.212Z,20.70
2018-07-22T06:59:33.424Z,20.70
2018-07-22T07:04:07.743Z,20.60
2018-07-22T07:13:16.938Z,20.60
2018-07-22T07:17:51.263Z,20.90
2018-07-22T07:22:25.843Z,21.20
2018-07-22T07:27:00.816Z,21.60
2018-07-22T07:31:35.164Z,21.70
2018-07-22T07:36:09.452Z,21.80
2018-07-22T07:40:44.912Z,21.90
2018-07-22T07:45:19.391Z,22.10
2018-07-22T07:49:53.740Z,22.60
2018-07-22T07:54:28.383Z,22.90
2018-07-22T07:59:02.812Z,23.00
2018-07-22T08:03:37.348Z,23.00
2018-07-22T08:08:12.885Z,23.10
2018-07-22T08:12:47.338Z,23.10
2018-07-22T08:21:55.686Z,23.00
2018-07-22T08:26:29.883Z,22.90
2018-07-22T08:31:04.784Z,22.90
2018-07-22T08:35:39.096Z,22.90
2018-07-22T08:40:13.887Z,23.00
2018-07-22T08:44:48.788Z,23.10
2018-07-22T08:49:23.046Z,23.20
2018-07-22T08:53:58.396Z,23.20
2018-07-22T08:58:33.088Z,23.30
2018-07-22T09:03:07.568Z,23.50
2018-07-22T09:12:17.067Z,23.50
2018-07-22T09:16:51.268Z,23.60
2018-07-22T09:21:25.435Z,23.70
2018-07-22T09:25:59.719Z,23.80
2018-07-22T09:30:34.120Z,24.00
2018-07-22T09:35:09.247Z,24.30
2018-07-22T09:39:44.279Z,24.70
2018-07-22T09:44:18.983Z,24.90
2018-07-22T09:48:53.144Z,25.30
2018-07-22T09:58:01.508Z,26.10
2018-07-22T10:02:36.426Z,26.10
2018-07-22T10:07:11.439Z,26.30
2018-07-22T10:11:46.620Z,26.70
2018-07-22T10:16:21.159Z,27.30
2018-07-22T10:20:55.815Z,28.80
2018-07-22T10:25:31.663Z,30.90
2018-07-22T10:30:06.431Z,32.40
2018-07-22T10:34:41.020Z,33.60
2018-07-22T10:39:16.703Z,33.80
2018-07-22T10:43:51.852Z,34.20
2018-07-22T10:48:27.633Z,35.20
2018-07-22T10:53:02.235Z,35.80
2018-07-22T10:57:36.673Z,35.80
2018-07-22T11:02:11.272Z,36.60
2018-07-22T11:06:46.136Z,37.20
2018-07-22T11:11:22.495Z,37.00
2018-07-22T11:15:59.768Z,37.20
2018-07-22T11:20:35.961Z,37.60
2018-07-22T11:25:10.119Z,36.80
2018-07-22T11:34:19.359Z,36.40
2018-07-22T11:38:53.595Z,36.70
2018-07-22T11:43:27.772Z,37.50
2018-07-22T11:48:03.457Z,37.30
2018-07-22T11:52:53.075Z,36.00
2018-07-22T11:57:30.400Z,35.40
2018-07-22T12:02:05.267Z,35.00
2018-07-22T12:06:40.307Z,34.40
2018-07-22T12:11:15.503Z,33.90
2018-07-22T12:15:51.411Z,34.60
2018-07-22T12:20:25.932Z,34.10
2018-07-22T12:25:00.880Z,33.40
2018-07-22T12:29:35.652Z,33.00
2018-07-22T12:38:43.879Z,32.00
2018-07-22T12:43:18.209Z,31.80
2018-07-22T12:47:52.485Z,31.50
2018-07-22T12:52:26.786Z,31.60
2018-07-22T12:57:01.932Z,31.50
2018-07-22T13:01:36.719Z,31.50
2018-07-22T13:06:10.898Z,31.30
2018-07-22T13:10:46.877Z,31.30
2018-07-22T13:15:21.306Z,31.00
2018-07-22T13:19:56.785Z,30.90
2018-07-22T13:29:07.365Z,31.40
2018-07-22T13:33:41.684Z,31.40
2018-07-22T13:38:16.098Z,31.60
2018-07-22T13:47:24.421Z,31.60
2018-07-22T13:51:59.933Z,32.30
2018-07-22T13:56:34.124Z,32.90
2018-07-22T14:01:09.112Z,32.70
2018-07-22T14:05:43.352Z,32.50
2018-07-22T14:10:17.599Z,32.50
2018-07-22T14:14:51.761Z,32.30
2018-07-22T14:19:31.010Z,32.10
2018-07-22T14:24:05.844Z,31.90
2018-07-22T14:28:40.480Z,31.90
2018-07-22T14:33:14.800Z,31.50
2018-07-22T14:37:49.992Z,31.50
2018-07-22T14:42:26.182Z,31.70
2018-07-22T14:47:00.428Z,32.00
2018-07-22T14:51:34.600Z,31.90
2018-07-22T14:56:08.879Z,31.90
2018-07-22T15:00:43.069Z,31.70
2018-07-22T15:05:18.259Z,31.50
2018-07-22T15:09:52.891Z,31.40
2018-07-22T15:14:27.634Z,31.20
2018-07-22T15:19:01.998Z,31.00
2018-07-22T15:23:36.167Z,31.10
2018-07-22T15:28:11.124Z,31.00
2018-07-22T15:32:47.015Z,30.80
2018-07-22T15:37:21.310Z,30.90
2018-07-22T15:41:57.180Z,30.80
2018-07-22T15:51:06.340Z,30.70
2018-07-22T15:55:41.610Z,30.70
2018-07-22T16:00:16.137Z,30.40
2018-07-22T16:04:51.177Z,30.10
2018-07-22T16:09:25.421Z,30.10
2018-07-22T16:18:33.382Z,30.10
2018-07-22T16:23:14.184Z,30.00
2018-07-22T16:27:48.789Z,29.90
2018-07-22T16:32:23.715Z,29.70
2018-07-22T16:36:58.057Z,29.60
2018-07-22T16:41:32.460Z,29.30
2018-07-22T16:46:07.211Z,29.10
2018-07-22T16:50:42.764Z,29.00
2018-07-22T16:55:17.792Z,29.00
2018-07-22T16:59:51.980Z,29.00
2018-07-22T17:04:26.832Z,29.10
2018-07-22T17:09:01.279Z,29.10
2018-07-22T17:13:36.207Z,29.20
2018-07-22T17:18:10.535Z,29.30
2018-07-22T17:22:44.983Z,29.30
2018-07-22T17:27:19.369Z,29.20
2018-07-22T17:31:55.179Z,29.30
2018-07-22T17:36:29.386Z,29.30
2018-07-22T17:41:03.640Z,29.30
2018-07-22T17:45:38.176Z,29.30
2018-07-22T17:50:14.025Z,29.30
2018-07-22T17:54:48.608Z,29.40
2018-07-22T18:03:58.197Z,29.40
2018-07-22T18:08:32.417Z,29.30
2018-07-22T18:17:40.279Z,29.10
2018-07-22T18:22:15.056Z,29.00
2018-07-22T18:26:49.264Z,29.00
2018-07-22T18:31:23.628Z,29.00
2018-07-22T18:35:58.012Z,28.80
2018-07-22T18:40:32.923Z,28.70
2018-07-22T18:45:08.296Z,28.60
2018-07-22T18:49:43.481Z,28.40
2018-07-22T18:54:18.576Z,28.20
2018-07-22T18:58:53.223Z,27.90
2018-07-22T19:03:29.008Z,27.70
2018-07-22T19:08:03.513Z,27.60
2018-07-22T19:12:38.707Z,27.40
2018-07-22T19:17:12.958Z,27.30
2018-07-22T19:21:48.352Z,27.10
2018-07-22T19:26:22.623Z,26.90
2018-07-22T19:30:57.312Z,26.70
2018-07-22T19:35:31.760Z,26.50
2018-07-22T19:40:06.092Z,26.30
2018-07-22T19:44:40.991Z,26.10
2018-07-22T19:49:15.245Z,25.90
2018-07-22T19:53:49.661Z,25.70
2018-07-22T20:02:58.970Z,25.20
2018-07-22T20:07:33.427Z,25.10
2018-07-22T20:12:08.256Z,24.90
2018-07-22T20:16:42.814Z,24.70
2018-07-22T20:21:17.825Z,24.60
2018-07-22T20:25:52.146Z,24.50
2018-07-22T20:30:27.303Z,24.20
2018-07-22T20:35:03.310Z,24.00
2018-07-22T20:39:39.124Z,23.80
2018-07-22T20:44:13.551Z,23.60
2018-07-22T20:48:48.484Z,23.40
2018-07-22T20:53:23.867Z,23.20
2018-07-22T20:57:58.027Z,23.00
2018-07-22T21:02:33.348Z,22.80
2018-07-22T21:07:08.484Z,22.70
2018-07-22T21:11:53.872Z,22.50
2018-07-22T21:16:28.167Z,22.30
2018-07-22T21:21:03.105Z,22.10
2018-07-22T21:25:37.521Z,21.90
2018-07-22T21:30:12.616Z,21.80
2018-07-22T21:39:21.875Z,21.50
2018-07-22T21:43:56.079Z,21.40
2018-07-22T21:48:30.681Z,21.30
2018-07-22T21:53:04.980Z,21.20
2018-07-22T21:57:40.484Z,21.20
2018-07-22T22:02:15.499Z,21.20
2018-07-22T22:06:50.064Z,21.10
2018-07-22T22:11:25.907Z,21.20
2018-07-22T22:16:00.303Z,21.10
2018-07-22T22:20:34.524Z,20.90
2018-07-22T22:25:10.032Z,20.70
2018-07-22T22:29:44.590Z,20.60
2018-07-22T22:34:19.051Z,20.60
2018-07-22T22:38:54.394Z,20.50
2018-07-22T22:43:29.459Z,20.30
2018-07-22T22:48:04.392Z,20.10
2018-07-22T22:52:38.719Z,20.00
2018-07-22T22:57:13.664Z,19.90
2018-07-22T23:01:48.324Z,19.70
2018-07-22T23:06:22.919Z,19.60
2018-07-22T23:10:58.508Z,19.40
2018-07-22T23:15:34.147Z,19.40
2018-07-22T23:20:09.307Z,19.40
2018-07-22T23:24:43.859Z,19.40
2018-07-22T23:29:19.116Z,19.30
2018-07-22T23:33:53.599Z,19.20
2018-07-22T23:38:27.983Z,19.20
2018-07-22T23:43:02.887Z,19.20
2018-07-22T23:47:37.984Z,19.10
2018-07-22T23:52:12.420Z,18.90
